sensor_id;sensor_type;location;lat;lon;timestamp;pressure;altitude;pressure_sealevel;temperature;humidity
49455;BME280;69710;64.656;21.218;2023-04-28T00:01:34;101314.16;;;-0.57;100.00
49455;BME280;69710;64.656;21.218;2023-04-28T00:04:02;101307.37;;;-0.61;100.00
49455;BME280;69710;64.656;21.218;2023-04-28T00:06:29;101310.17;;;-0.24;100.00
49455;BME280;69710;64.656;21.218;2023-04-28T00:08:57;101313.71;;;-0.06;100.00
49455;BME280;69710;64.656;21.218;2023-04-28T00:11:24;101309.26;;;-1.05;100.00
49455;BME280;69710;64.656;21.218;2023-04-28T00:13:52;101309.27;;;-0.68;100.00
49455;BME280;69710;64.656;21.218;2023-04-28T00:16:19;101312.28;;;-0.27;100.00
49455;BME280;69710;64.656;21.218;2023-04-28T00:18:47;101314.37;;;-0.69;100.00
49455;BME280;69710;64.656;21.218;2023-04-28T00:21:15;101310.79;;;0.06;100.00
49455;BME280;69710;64.656;21.218;2023-04-28T00:23:43;101314.24;;;-0.61;100.00
49455;BME280;69710;64.656;21.218;2023-04-28T00:26:10;101319.61;;;0.08;100.00
49455;BME280;69710;64.656;21.218;2023-04-28T00:28:38;101324.51;;;-0.34;100.00
49455;BME280;69710;64.656;21.218;2023-04-28T00:31:10;101328.86;;;-0.26;100.00
49455;BME280;69710;64.656;21.218;2023-04-28T00:33:37;101329.81;;;-0.81;100.00
49455;BME280;69710;64.656;21.218;2023-04-28T00:36:06;101331.79;;;-0.54;100.00
49455;BME280;69710;64.656;21.218;2023-04-28T00:38:34;101331.13;;;-0.66;100.00
49455;BME280;69710;64.656;21.218;2023-04-28T00:41:01;101329.02;;;0.09;100.00
49455;BME280;69710;64.656;21.218;2023-04-28T00:43:30;101334.16;;;-0.67;100.00
49455;BME280;69710;64.656;21.218;2023-04-28T00:45:58;101338.36;;;-0.75;100.00
49455;BME280;69710;64.656;21.218;2023-04-28T00:48:26;101338.02;;;-0.84;100.00
49455;BME280;69710;64.656;21.218;2023-04-28T00:50:53;101341.30;;;-0.66;100.00
49455;BME280;69710;64.656;21.218;2023-04-28T00:53:21;101341.15;;;-0.42;100.00
49455;BME280;69710;64.656;21.218;2023-04-28T00:55:50;101341.50;;;-0.39;100.00
49455;BME280;69710;64.656;21.218;2023-04-28T00:58:19;101347.32;;;0.09;100.00
49455;BME280;69710;64.656;21.218;2023-04-28T01:00:48;101345.71;;;-0.51;100.00
49455;BME280;69710;64.656;21.218;2023-04-28T01:03:16;101340.89;;;-0.42;100.00
49455;BME280;69710;64.656;21.218;2023-04-28T01:05:44;101343.76;;;-0.25;100.00
49455;BME280;69710;64.656;21.218;2023-04-28T01:08:12;101345.72;;;-0.59;100.00
49455;BME280;69710;64.656;21.218;2023-04-28T01:10:43;101351.31;;;-0.39;100.00
49455;BME280;69710;64.656;21.218;2023-04-28T01:13:11;101343.05;;;-0.67;100.00
49455;BME280;69710;64.656;21.218;2023-04-28T01:15:39;101344.32;;;-0.71;100.00
49455;BME280;69710;64.656;21.218;2023-04-28T01:18:08;101347.95;;;-0.58;100.00
49455;BME280;69710;64.656;21.218;2023-04-28T01:20:35;101347.80;;;-0.50;100.00
49455;BME280;69710;64.656;21.218;2023-04-28T01:23:03;101338.43;;;-0.67;100.00
49455;BME280;69710;64.656;21.218;2023-04-28T01:25:31;101338.56;;;-0.82;100.00
49455;BME280;69710;64.656;21.218;2023-04-28T01:27:58;101339.66;;;-0.39;100.00
49455;BME280;69710;64.656;21.218;2023-04-28T01:30:26;101340.80;;;-0.75;100.00
49455;BME280;69710;64.656;21.218;2023-04-28T01:32:53;101340.73;;;-0.67;100.00
49455;BME280;69710;64.656;21.218;2023-04-28T01:35:21;101333.07;;;-0.79;100.00
49455;BME280;69710;64.656;21.218;2023-04-28T01:37:49;101325.03;;;-0.71;100.00
49455;BME280;69710;64.656;21.218;2023-04-28T01:40:16;101325.89;;;-0.66;100.00
49455;BME280;69710;64.656;21.218;2023-04-28T01:42:44;101326.57;;;-0.76;100.00
49455;BME280;69710;64.656;21.218;2023-04-28T01:45:12;101324.96;;;-0.84;100.00
49455;BME280;69710;64.656;21.218;2023-04-28T01:47:39;101320.89;;;-0.41;100.00
49455;BME280;69710;64.656;21.218;2023-04-28T01:50:08;101322.98;;;-0.62;100.00
49455;BME280;69710;64.656;21.218;2023-04-28T01:52:35;101327.26;;;-0.57;100.00
49455;BME280;69710;64.656;21.218;2023-04-28T01:55:03;101323.21;;;-0.43;100.00
49455;BME280;69710;64.656;21.218;2023-04-28T01:57:31;101320.68;;;-0.99;100.00
49455;BME280;69710;64.656;21.218;2023-04-28T02:00:00;101322.09;;;-0.42;100.00
49455;BME280;69710;64.656;21.218;2023-04-28T02:02:27;101323.92;;;-0.77;100.00
49455;BME280;69710;64.656;21.218;2023-04-28T02:04:55;101322.05;;;-0.98;100.00
49455;BME280;69710;64.656;21.218;2023-04-28T02:07:23;101319.44;;;-0.79;100.00
49455;BME280;69710;64.656;21.218;2023-04-28T02:09:50;101313.33;;;-0.99;100.00
49455;BME280;69710;64.656;21.218;2023-04-28T02:12:18;101316.05;;;-1.33;100.00
49455;BME280;69710;64.656;21.218;2023-04-28T02:14:45;101317.48;;;-1.32;100.00
49455;BME280;69710;64.656;21.218;2023-04-28T02:17:13;101325.97;;;-1.00;100.00
49455;BME280;69710;64.656;21.218;2023-04-28T02:19:41;101328.91;;;-0.66;100.00
49455;BME280;69710;64.656;21.218;2023-04-28T02:22:09;101328.66;;;-0.93;100.00
49455;BME280;69710;64.656;21.218;2023-04-28T02:24:36;101327.03;;;-0.55;100.00
49455;BME280;69710;64.656;21.218;2023-04-28T02:27:05;101327.08;;;-0.54;100.00
49455;BME280;69710;64.656;21.218;2023-04-28T02:29:32;101329.45;;;-0.61;100.00
49455;BME280;69710;64.656;21.218;2023-04-28T02:32:00;101332.34;;;-0.61;100.00
49455;BME280;69710;64.656;21.218;2023-04-28T02:34:28;101338.21;;;-0.68;100.00
49455;BME280;69710;64.656;21.218;2023-04-28T02:36:55;101341.33;;;-0.74;100.00
49455;BME280;69710;64.656;21.218;2023-04-28T02:39:23;101342.16;;;-0.60;100.00
49455;BME280;69710;64.656;21.218;2023-04-28T02:41:51;101336.62;;;-0.76;100.00
49455;BME280;69710;64.656;21.218;2023-04-28T02:44:19;101335.58;;;-0.82;100.00
49455;BME280;69710;64.656;21.218;2023-04-28T02:46:48;101339.17;;;-0.63;100.00
49455;BME280;69710;64.656;21.218;2023-04-28T02:49:15;101338.46;;;-0.67;100.00
49455;BME280;69710;64.656;21.218;2023-04-28T02:51:43;101329.89;;;-0.92;100.00
49455;BME280;69710;64.656;21.218;2023-04-28T02:54:11;101324.52;;;-0.88;100.00
49455;BME280;69710;64.656;21.218;2023-04-28T02:56:39;101329.39;;;0.01;100.00
49455;BME280;69710;64.656;21.218;2023-04-28T02:59:07;101327.28;;;-0.51;100.00
49455;BME280;69710;64.656;21.218;2023-04-28T03:01:35;101320.92;;;-0.47;100.00
49455;BME280;69710;64.656;21.218;2023-04-28T03:04:02;101319.23;;;-0.59;100.00
49455;BME280;69710;64.656;21.218;2023-04-28T03:06:30;101320.20;;;-0.81;100.00
49455;BME280;69710;64.656;21.218;2023-04-28T03:08:57;101321.58;;;-0.71;100.00
49455;BME280;69710;64.656;21.218;2023-04-28T03:11:25;101319.40;;;-0.26;100.00
49455;BME280;69710;64.656;21.218;2023-04-28T03:13:53;101317.48;;;-0.37;100.00
49455;BME280;69710;64.656;21.218;2023-04-28T03:16:20;101318.72;;;-0.68;100.00
49455;BME280;69710;64.656;21.218;2023-04-28T03:18:48;101314.79;;;-0.64;100.00
49455;BME280;69710;64.656;21.218;2023-04-28T03:21:16;101310.61;;;-0.78;100.00
49455;BME280;69710;64.656;21.218;2023-04-28T03:23:43;101310.42;;;-0.35;100.00
49455;BME280;69710;64.656;21.218;2023-04-28T03:26:11;101308.97;;;-0.70;100.00
49455;BME280;69710;64.656;21.218;2023-04-28T03:28:39;101308.96;;;-0.63;100.00
49455;BME280;69710;64.656;21.218;2023-04-28T03:31:07;101308.09;;;-0.22;100.00
49455;BME280;69710;64.656;21.218;2023-04-28T03:33:34;101306.13;;;-0.48;100.00
49455;BME280;69710;64.656;21.218;2023-04-28T03:36:03;101302.95;;;-0.56;100.00
49455;BME280;69710;64.656;21.218;2023-04-28T03:38:31;101305.37;;;-0.39;100.00
49455;BME280;69710;64.656;21.218;2023-04-28T03:40:58;101305.57;;;-0.67;100.00
49455;BME280;69710;64.656;21.218;2023-04-28T03:43:25;101301.68;;;-1.10;100.00
49455;BME280;69710;64.656;21.218;2023-04-28T03:45:53;101307.06;;;-1.71;100.00
49455;BME280;69710;64.656;21.218;2023-04-28T03:48:21;101310.82;;;-1.42;100.00
49455;BME280;69710;64.656;21.218;2023-04-28T03:50:49;101306.88;;;-0.75;100.00
49455;BME280;69710;64.656;21.218;2023-04-28T03:53:16;101311.89;;;-0.99;100.00
49455;BME280;69710;64.656;21.218;2023-04-28T03:55:44;101307.66;;;-0.64;100.00
49455;BME280;69710;64.656;21.218;2023-04-28T03:58:11;101308.23;;;-0.32;100.00
49455;BME280;69710;64.656;21.218;2023-04-28T04:00:39;101306.84;;;-0.31;100.00
49455;BME280;69710;64.656;21.218;2023-04-28T04:03:06;101304.28;;;0.00;100.00
49455;BME280;69710;64.656;21.218;2023-04-28T04:05:34;101304.75;;;-0.03;100.00
49455;BME280;69710;64.656;21.218;2023-04-28T04:08:02;101302.54;;;0.03;100.00
49455;BME280;69710;64.656;21.218;2023-04-28T04:10:30;101301.03;;;-0.11;100.00
49455;BME280;69710;64.656;21.218;2023-04-28T04:12:57;101303.35;;;-0.09;100.00
49455;BME280;69710;64.656;21.218;2023-04-28T04:15:25;101305.48;;;0.02;100.00
49455;BME280;69710;64.656;21.218;2023-04-28T04:17:52;101303.92;;;0.29;100.00
49455;BME280;69710;64.656;21.218;2023-04-28T04:20:20;101302.69;;;0.70;100.00
49455;BME280;69710;64.656;21.218;2023-04-28T04:22:48;101297.70;;;1.14;100.00
49455;BME280;69710;64.656;21.218;2023-04-28T04:25:16;101295.50;;;1.49;100.00
49455;BME280;69710;64.656;21.218;2023-04-28T04:27:44;101294.23;;;1.59;100.00
49455;BME280;69710;64.656;21.218;2023-04-28T04:30:12;101297.46;;;1.37;100.00
49455;BME280;69710;64.656;21.218;2023-04-28T04:32:40;101299.86;;;1.29;100.00
49455;BME280;69710;64.656;21.218;2023-04-28T04:35:08;101298.70;;;1.13;100.00
49455;BME280;69710;64.656;21.218;2023-04-28T04:37:36;101295.33;;;1.85;100.00
49455;BME280;69710;64.656;21.218;2023-04-28T04:40:04;101297.14;;;2.46;100.00
49455;BME280;69710;64.656;21.218;2023-04-28T04:42:33;101294.71;;;1.57;100.00
49455;BME280;69710;64.656;21.218;2023-04-28T04:45:01;101299.29;;;1.96;100.00
49455;BME280;69710;64.656;21.218;2023-04-28T04:47:28;101310.04;;;-0.22;100.00
49455;BME280;69710;64.656;21.218;2023-04-28T04:49:56;101308.74;;;0.01;100.00
49455;BME280;69710;64.656;21.218;2023-04-28T04:52:25;101310.00;;;-0.07;100.00
49455;BME280;69710;64.656;21.218;2023-04-28T04:54:52;101310.94;;;0.49;100.00
49455;BME280;69710;64.656;21.218;2023-04-28T04:57:20;101304.86;;;1.56;100.00
49455;BME280;69710;64.656;21.218;2023-04-28T04:59:49;101311.28;;;-0.05;100.00
49455;BME280;69710;64.656;21.218;2023-04-28T05:02:17;101306.02;;;-0.30;100.00
49455;BME280;69710;64.656;21.218;2023-04-28T05:04:44;101302.13;;;-0.47;100.00
49455;BME280;69710;64.656;21.218;2023-04-28T05:07:11;101305.54;;;-1.58;100.00
49455;BME280;69710;64.656;21.218;2023-04-28T05:09:40;101305.34;;;-1.28;100.00
49455;BME280;69710;64.656;21.218;2023-04-28T05:12:07;101300.49;;;-0.72;100.00
49455;BME280;69710;64.656;21.218;2023-04-28T05:14:35;101302.42;;;0.41;100.00
49455;BME280;69710;64.656;21.218;2023-04-28T05:17:03;101303.48;;;0.44;100.00
49455;BME280;69710;64.656;21.218;2023-04-28T05:19:30;101301.34;;;0.49;100.00
49455;BME280;69710;64.656;21.218;2023-04-28T05:21:58;101304.22;;;-0.06;100.00
49455;BME280;69710;64.656;21.218;2023-04-28T05:24:25;101306.10;;;0.39;100.00
49455;BME280;69710;64.656;21.218;2023-04-28T05:26:53;101303.05;;;-0.11;100.00
49455;BME280;69710;64.656;21.218;2023-04-28T05:29:20;101301.46;;;0.59;100.00
49455;BME280;69710;64.656;21.218;2023-04-28T05:31:49;101301.10;;;0.26;100.00
49455;BME280;69710;64.656;21.218;2023-04-28T05:34:17;101301.40;;;-0.26;100.00
49455;BME280;69710;64.656;21.218;2023-04-28T05:36:44;101304.20;;;0.04;100.00
49455;BME280;69710;64.656;21.218;2023-04-28T05:39:12;101306.33;;;-0.30;100.00
49455;BME280;69710;64.656;21.218;2023-04-28T05:41:40;101308.10;;;0.13;100.00
49455;BME280;69710;64.656;21.218;2023-04-28T05:44:08;101309.61;;;0.64;100.00
49455;BME280;69710;64.656;21.218;2023-04-28T05:46:36;101304.69;;;1.72;100.00
49455;BME280;69710;64.656;21.218;2023-04-28T05:49:03;101302.66;;;2.49;100.00
49455;BME280;69710;64.656;21.218;2023-04-28T05:51:31;101304.64;;;2.87;100.00
49455;BME280;69710;64.656;21.218;2023-04-28T05:53:59;101305.03;;;3.30;98.08
49455;BME280;69710;64.656;21.218;2023-04-28T05:56:26;101307.83;;;2.70;100.00
49455;BME280;69710;64.656;21.218;2023-04-28T05:58:55;101306.80;;;4.45;93.68
49455;BME280;69710;64.656;21.218;2023-04-28T06:01:23;101306.88;;;3.89;92.59
49455;BME280;69710;64.656;21.218;2023-04-28T06:03:50;101307.35;;;2.08;94.00
49455;BME280;69710;64.656;21.218;2023-04-28T06:06:18;101306.40;;;4.38;92.47
49455;BME280;69710;64.656;21.218;2023-04-28T06:08:46;101306.17;;;4.88;90.57
49455;BME280;69710;64.656;21.218;2023-04-28T06:11:13;101307.49;;;4.20;88.82
49455;BME280;69710;64.656;21.218;2023-04-28T06:13:40;101309.84;;;4.33;85.97
49455;BME280;69710;64.656;21.218;2023-04-28T06:16:08;101308.46;;;4.08;87.00
49455;BME280;69710;64.656;21.218;2023-04-28T06:18:35;101309.17;;;4.94;85.36
49455;BME280;69710;64.656;21.218;2023-04-28T06:21:03;101308.76;;;5.45;84.64
49455;BME280;69710;64.656;21.218;2023-04-28T06:23:31;101305.57;;;5.23;83.32
49455;BME280;69710;64.656;21.218;2023-04-28T06:25:59;101309.67;;;4.20;86.25
49455;BME280;69710;64.656;21.218;2023-04-28T06:28:26;101313.09;;;3.86;87.04
49455;BME280;69710;64.656;21.218;2023-04-28T06:30:54;101317.56;;;4.97;83.92
49455;BME280;69710;64.656;21.218;2023-04-28T06:33:21;101319.78;;;4.36;81.36
49455;BME280;69710;64.656;21.218;2023-04-28T06:35:49;101319.50;;;5.09;84.76
49455;BME280;69710;64.656;21.218;2023-04-28T06:38:17;101311.77;;;6.03;78.52
49455;BME280;69710;64.656;21.218;2023-04-28T06:40:44;101311.60;;;6.03;75.94
49455;BME280;69710;64.656;21.218;2023-04-28T06:43:13;101316.36;;;5.40;78.17
49455;BME280;69710;64.656;21.218;2023-04-28T06:45:41;101317.45;;;5.70;78.01
49455;BME280;69710;64.656;21.218;2023-04-28T06:48:08;101318.45;;;4.69;77.37
49455;BME280;69710;64.656;21.218;2023-04-28T06:50:36;101324.35;;;4.44;79.24
49455;BME280;69710;64.656;21.218;2023-04-28T06:53:04;101320.51;;;5.43;76.52
49455;BME280;69710;64.656;21.218;2023-04-28T06:55:33;101320.44;;;4.82;75.23
49455;BME280;69710;64.656;21.218;2023-04-28T06:58:01;101321.78;;;4.30;76.66
49455;BME280;69710;64.656;21.218;2023-04-28T07:00:28;101317.93;;;3.85;77.79
49455;BME280;69710;64.656;21.218;2023-04-28T07:02:56;101319.49;;;3.22;83.23
49455;BME280;69710;64.656;21.218;2023-04-28T07:14:24;101321.50;;;4.06;83.52
49455;BME280;69710;64.656;21.218;2023-04-28T07:16:51;101322.79;;;5.28;80.09
49455;BME280;69710;64.656;21.218;2023-04-28T07:19:19;101324.88;;;4.59;79.54
49455;BME280;69710;64.656;21.218;2023-04-28T07:21:46;101325.40;;;3.62;80.47
49455;BME280;69710;64.656;21.218;2023-04-28T07:24:13;101329.76;;;2.50;84.72
49455;BME280;69710;64.656;21.218;2023-04-28T07:26:41;101327.47;;;4.51;81.41
49455;BME280;69710;64.656;21.218;2023-04-28T07:29:09;101330.96;;;4.77;77.71
49455;BME280;69710;64.656;21.218;2023-04-28T07:31:37;101331.89;;;4.44;81.33
49455;BME280;69710;64.656;21.218;2023-04-28T07:34:04;101331.56;;;4.60;77.40
49455;BME280;69710;64.656;21.218;2023-04-28T07:36:32;101331.59;;;4.85;77.80
49455;BME280;69710;64.656;21.218;2023-04-28T07:38:59;101330.28;;;4.98;77.83
49455;BME280;69710;64.656;21.218;2023-04-28T07:41:27;101333.10;;;3.99;75.50
49455;BME280;69710;64.656;21.218;2023-04-28T07:43:55;101334.50;;;3.64;76.96
49455;BME280;69710;64.656;21.218;2023-04-28T07:46:23;101335.42;;;3.10;80.52
49455;BME280;69710;64.656;21.218;2023-04-28T07:48:50;101335.33;;;4.68;79.22
49455;BME280;69710;64.656;21.218;2023-04-28T07:51:18;101332.76;;;3.17;78.37
49455;BME280;69710;64.656;21.218;2023-04-28T07:53:45;101334.35;;;4.64;75.02
49455;BME280;69710;64.656;21.218;2023-04-28T07:56:12;101333.01;;;4.04;75.10
49455;BME280;69710;64.656;21.218;2023-04-28T07:58:40;101331.09;;;4.31;76.31
49455;BME280;69710;64.656;21.218;2023-04-28T08:01:07;101329.85;;;4.69;76.20
49455;BME280;69710;64.656;21.218;2023-04-28T08:03:34;101328.78;;;5.29;73.35
49455;BME280;69710;64.656;21.218;2023-04-28T08:06:02;101327.83;;;3.35;78.63
49455;BME280;69710;64.656;21.218;2023-04-28T08:08:30;101325.46;;;4.35;79.32
49455;BME280;69710;64.656;21.218;2023-04-28T08:10:57;101322.28;;;4.95;75.74
49455;BME280;69710;64.656;21.218;2023-04-28T08:13:55;101322.84;;;3.94;76.75
49455;BME280;69710;64.656;21.218;2023-04-28T08:16:23;101318.54;;;5.74;74.02
49455;BME280;69710;64.656;21.218;2023-04-28T08:18:50;101315.52;;;5.79;73.60
49455;BME280;69710;64.656;21.218;2023-04-28T08:21:18;101314.23;;;5.42;74.17
49455;BME280;69710;64.656;21.218;2023-04-28T08:23:46;101310.86;;;5.84;73.06
49455;BME280;69710;64.656;21.218;2023-04-28T08:26:14;101315.03;;;5.06;71.20
49455;BME280;69710;64.656;21.218;2023-04-28T08:28:41;101316.36;;;3.46;75.40
49455;BME280;69710;64.656;21.218;2023-04-28T08:31:09;101320.71;;;1.23;84.65
49455;BME280;69710;64.656;21.218;2023-04-28T08:33:36;101315.63;;;2.59;82.35
49455;BME280;69710;64.656;21.218;2023-04-28T08:36:04;101316.38;;;3.86;81.99
49455;BME280;69710;64.656;21.218;2023-04-28T08:38:32;101307.14;;;3.77;83.16
49455;BME280;69710;64.656;21.218;2023-04-28T08:40:59;101314.30;;;3.57;77.93
49455;BME280;69710;64.656;21.218;2023-04-28T08:43:27;101317.34;;;4.29;80.24
49455;BME280;69710;64.656;21.218;2023-04-28T08:45:54;101315.65;;;4.30;74.74
49455;BME280;69710;64.656;21.218;2023-04-28T08:48:22;101314.63;;;5.76;73.23
49455;BME280;69710;64.656;21.218;2023-04-28T08:50:51;101310.30;;;4.52;73.34
49455;BME280;69710;64.656;21.218;2023-04-28T08:53:22;101304.95;;;5.99;72.60
49455;BME280;69710;64.656;21.218;2023-04-28T08:55:51;101317.38;;;4.77;76.94
49455;BME280;69710;64.656;21.218;2023-04-28T08:58:21;101313.38;;;4.10;74.96
49455;BME280;69710;64.656;21.218;2023-04-28T09:00:49;101308.42;;;4.38;74.76
49455;BME280;69710;64.656;21.218;2023-04-28T09:03:16;101312.79;;;3.33;75.15
49455;BME280;69710;64.656;21.218;2023-04-28T09:05:43;101309.05;;;3.27;76.97
49455;BME280;69710;64.656;21.218;2023-04-28T09:08:11;101308.09;;;4.83;76.79
49455;BME280;69710;64.656;21.218;2023-04-28T09:10:38;101302.30;;;5.65;72.69
49455;BME280;69710;64.656;21.218;2023-04-28T09:13:06;101305.46;;;4.36;72.02
49455;BME280;69710;64.656;21.218;2023-04-28T09:15:35;101304.79;;;5.45;70.55
49455;BME280;69710;64.656;21.218;2023-04-28T09:18:04;101305.88;;;4.76;77.28
49455;BME280;69710;64.656;21.218;2023-04-28T09:20:33;101306.77;;;4.39;75.59
49455;BME280;69710;64.656;21.218;2023-04-28T09:23:14;101300.38;;;6.61;71.32
49455;BME280;69710;64.656;21.218;2023-04-28T09:25:57;101305.29;;;3.76;75.49
49455;BME280;69710;64.656;21.218;2023-04-28T09:28:25;101299.48;;;5.91;69.68
49455;BME280;69710;64.656;21.218;2023-04-28T09:30:53;101300.20;;;5.45;66.62
49455;BME280;69710;64.656;21.218;2023-04-28T09:33:21;101298.34;;;6.42;69.05
49455;BME280;69710;64.656;21.218;2023-04-28T09:35:49;101295.97;;;6.79;65.68
49455;BME280;69710;64.656;21.218;2023-04-28T09:38:18;101294.29;;;7.16;65.79
49455;BME280;69710;64.656;21.218;2023-04-28T09:40:52;101296.46;;;7.29;64.28
49455;BME280;69710;64.656;21.218;2023-04-28T09:43:25;101296.95;;;7.55;64.85
49455;BME280;69710;64.656;21.218;2023-04-28T09:45:54;101291.13;;;7.92;60.03
49455;BME280;69710;64.656;21.218;2023-04-28T09:48:31;101286.46;;;7.75;58.91
49455;BME280;69710;64.656;21.218;2023-04-28T09:51:02;101289.81;;;7.80;57.89
49455;BME280;69710;64.656;21.218;2023-04-28T09:53:30;101294.44;;;7.64;58.47
49455;BME280;69710;64.656;21.218;2023-04-28T09:56:00;101289.18;;;6.69;58.00
49455;BME280;69710;64.656;21.218;2023-04-28T09:58:29;101287.27;;;6.60;59.92
49455;BME280;69710;64.656;21.218;2023-04-28T10:00:59;101282.31;;;6.28;60.09
49455;BME280;69710;64.656;21.218;2023-04-28T10:03:28;101281.07;;;8.41;57.75
49455;BME280;69710;64.656;21.218;2023-04-28T10:05:57;101285.56;;;7.30;55.95
49455;BME280;69710;64.656;21.218;2023-04-28T10:08:25;101275.03;;;8.62;57.66
49455;BME280;69710;64.656;21.218;2023-04-28T10:10:53;101272.34;;;7.68;55.46
49455;BME280;69710;64.656;21.218;2023-04-28T10:13:22;101281.04;;;8.14;55.03
49455;BME280;69710;64.656;21.218;2023-04-28T10:15:51;101279.02;;;8.08;53.77
49455;BME280;69710;64.656;21.218;2023-04-28T10:18:19;101287.01;;;6.11;62.37
49455;BME280;69710;64.656;21.218;2023-04-28T10:20:52;101283.42;;;5.59;67.07
49455;BME280;69710;64.656;21.218;2023-04-28T10:24:11;101282.13;;;4.78;74.28
49455;BME280;69710;64.656;21.218;2023-04-28T10:27:14;101283.68;;;3.71;78.59
49455;BME280;69710;64.656;21.218;2023-04-28T10:29:42;101280.61;;;4.13;81.38
49455;BME280;69710;64.656;21.218;2023-04-28T10:32:18;101283.54;;;4.44;78.65
49455;BME280;69710;64.656;21.218;2023-04-28T10:34:47;101282.19;;;4.80;75.83
49455;BME280;69710;64.656;21.218;2023-04-28T10:37:14;101286.39;;;4.63;75.68
49455;BME280;69710;64.656;21.218;2023-04-28T10:40:30;101281.09;;;5.06;74.61
49455;BME280;69710;64.656;21.218;2023-04-28T10:42:58;101283.75;;;4.81;77.85
49455;BME280;69710;64.656;21.218;2023-04-28T10:46:10;101280.62;;;3.95;77.11
49455;BME280;69710;64.656;21.218;2023-04-28T10:49:04;101278.18;;;3.09;86.20
49455;BME280;69710;64.656;21.218;2023-04-28T10:51:33;101283.62;;;2.98;90.39
49455;BME280;69710;64.656;21.218;2023-04-28T10:54:17;101286.32;;;2.88;93.95
49455;BME280;69710;64.656;21.218;2023-04-28T10:58:30;101287.28;;;3.06;92.36
49455;BME280;69710;64.656;21.218;2023-04-28T11:01:23;101277.79;;;2.56;94.39
49455;BME280;69710;64.656;21.218;2023-04-28T11:03:53;101277.59;;;3.16;90.57
49455;BME280;69710;64.656;21.218;2023-04-28T11:06:23;101278.50;;;3.49;90.25
49455;BME280;69710;64.656;21.218;2023-04-28T11:08:51;101277.96;;;4.44;87.02
49455;BME280;69710;64.656;21.218;2023-04-28T11:11:20;101276.98;;;4.03;88.25
49455;BME280;69710;64.656;21.218;2023-04-28T11:13:48;101279.26;;;3.11;89.04
49455;BME280;69710;64.656;21.218;2023-04-28T11:16:18;101280.70;;;2.60;92.98
49455;BME280;69710;64.656;21.218;2023-04-28T11:19:02;101286.24;;;2.97;94.84
49455;BME280;69710;64.656;21.218;2023-04-28T11:21:31;101280.74;;;3.62;92.15
49455;BME280;69710;64.656;21.218;2023-04-28T11:23:59;101276.82;;;3.89;90.07
49455;BME280;69710;64.656;21.218;2023-04-28T11:26:28;101281.06;;;3.57;89.67
49455;BME280;69710;64.656;21.218;2023-04-28T11:28:56;101278.87;;;3.39;89.84
49455;BME280;69710;64.656;21.218;2023-04-28T11:31:25;101275.67;;;3.74;87.98
49455;BME280;69710;64.656;21.218;2023-04-28T11:33:57;101278.51;;;3.75;89.66
49455;BME280;69710;64.656;21.218;2023-04-28T11:36:28;101275.57;;;3.78;89.94
49455;BME280;69710;64.656;21.218;2023-04-28T11:38:56;101272.63;;;3.58;90.99
49455;BME280;69710;64.656;21.218;2023-04-28T11:41:24;101273.40;;;2.72;94.10
49455;BME280;69710;64.656;21.218;2023-04-28T11:43:53;101275.49;;;3.48;91.62
49455;BME280;69710;64.656;21.218;2023-04-28T11:46:22;101274.42;;;4.07;89.09
49455;BME280;69710;64.656;21.218;2023-04-28T11:49:00;101274.66;;;4.77;86.98
49455;BME280;69710;64.656;21.218;2023-04-28T11:51:29;101279.42;;;3.64;83.53
49455;BME280;69710;64.656;21.218;2023-04-28T11:53:57;101275.51;;;4.39;81.80
49455;BME280;69710;64.656;21.218;2023-04-28T11:56:24;101273.50;;;4.07;81.44
49455;BME280;69710;64.656;21.218;2023-04-28T11:59:01;101272.25;;;4.13;82.69
49455;BME280;69710;64.656;21.218;2023-04-28T12:01:29;101277.40;;;4.77;79.75
49455;BME280;69710;64.656;21.218;2023-04-28T12:03:57;101273.40;;;5.27;77.89
49455;BME280;69710;64.656;21.218;2023-04-28T12:06:24;101274.83;;;5.11;77.71
49455;BME280;69710;64.656;21.218;2023-04-28T12:08:52;101268.26;;;4.80;77.97
49455;BME280;69710;64.656;21.218;2023-04-28T12:11:19;101271.12;;;4.52;76.69
49455;BME280;69710;64.656;21.218;2023-04-28T12:14:03;101273.60;;;4.07;77.89
49455;BME280;69710;64.656;21.218;2023-04-28T12:16:39;101272.33;;;5.88;71.65
49455;BME280;69710;64.656;21.218;2023-04-28T12:19:08;101270.87;;;6.63;69.31
49455;BME280;69710;64.656;21.218;2023-04-28T12:21:37;101274.75;;;5.53;68.88
49455;BME280;69710;64.656;21.218;2023-04-28T12:24:20;101270.67;;;6.06;66.92
49455;BME280;69710;64.656;21.218;2023-04-28T12:26:48;101270.02;;;5.58;66.92
49455;BME280;69710;64.656;21.218;2023-04-28T12:29:52;101267.83;;;6.44;67.23
49455;BME280;69710;64.656;21.218;2023-04-28T12:32:36;101268.45;;;7.29;63.15
49455;BME280;69710;64.656;21.218;2023-04-28T12:35:05;101264.63;;;6.12;65.28
49455;BME280;69710;64.656;21.218;2023-04-28T12:37:33;101262.84;;;7.14;62.83
49455;BME280;69710;64.656;21.218;2023-04-28T12:40:00;101255.66;;;7.30;61.02
49455;BME280;69710;64.656;21.218;2023-04-28T12:42:28;101253.00;;;7.87;60.76
49455;BME280;69710;64.656;21.218;2023-04-28T12:44:56;101253.97;;;6.79;61.50
49455;BME280;69710;64.656;21.218;2023-04-28T12:47:24;101252.24;;;7.40;59.86
49455;BME280;69710;64.656;21.218;2023-04-28T12:49:51;101252.62;;;6.61;62.69
49455;BME280;69710;64.656;21.218;2023-04-28T12:52:19;101254.57;;;6.03;61.58
49455;BME280;69710;64.656;21.218;2023-04-28T12:54:47;101256.77;;;4.00;66.98
49455;BME280;69710;64.656;21.218;2023-04-28T12:57:16;101254.29;;;5.09;63.99
49455;BME280;69710;64.656;21.218;2023-04-28T12:59:45;101255.09;;;4.35;62.33
49455;BME280;69710;64.656;21.218;2023-04-28T13:02:13;101252.70;;;3.71;63.11
49455;BME280;69710;64.656;21.218;2023-04-28T13:04:41;101248.05;;;5.70;59.99